sensor_id;sensor_type;location;lat;lon;timestamp;P1;durP1;ratioP1;P2;durP2;ratioP2
20140;SDS011;10231;47.702;9.826;2022-10-31T00:01:29;13.83;;;7.27;;
20140;SDS011;10231;47.702;9.826;2022-10-31T00:03:56;15.40;;;7.43;;
20140;SDS011;10231;47.702;9.826;2022-10-31T00:06:22;13.67;;;8.20;;
20140;SDS011;10231;47.702;9.826;2022-10-31T00:08:52;11.30;;;7.53;;
20140;SDS011;10231;47.702;9.826;2022-10-31T00:11:18;10.00;;;6.80;;
20140;SDS011;10231;47.702;9.826;2022-10-31T00:13:44;10.20;;;7.00;;
20140;SDS011;10231;47.702;9.826;2022-10-31T00:16:20;12.13;;;7.33;;
20140;SDS011;10231;47.702;9.826;2022-10-31T00:18:48;12.77;;;6.83;;
20140;SDS011;10231;47.702;9.826;2022-10-31T00:21:14;10.40;;;6.80;;
20140;SDS011;10231;47.702;9.826;2022-10-31T00:23:40;9.83;;;7.30;;
20140;SDS011;10231;47.702;9.826;2022-10-31T00:26:05;11.37;;;7.27;;
20140;SDS011;10231;47.702;9.826;2022-10-31T00:28:32;12.10;;;7.20;;
20140;SDS011;10231;47.702;9.826;2022-10-31T00:31:01;10.33;;;6.43;;
20140;SDS011;10231;47.702;9.826;2022-10-31T00:33:27;10.37;;;6.47;;
20140;SDS011;10231;47.702;9.826;2022-10-31T00:35:53;7.60;;;6.50;;
20140;SDS011;10231;47.702;9.826;2022-10-31T00:38:19;9.47;;;6.23;;
20140;SDS011;10231;47.702;9.826;2022-10-31T00:40:45;9.30;;;6.27;;
20140;SDS011;10231;47.702;9.826;2022-10-31T00:43:10;9.17;;;6.10;;
20140;SDS011;10231;47.702;9.826;2022-10-31T00:45:36;7.27;;;6.30;;
20140;SDS011;10231;47.702;9.826;2022-10-31T00:48:02;12.77;;;6.17;;
20140;SDS011;10231;47.702;9.826;2022-10-31T00:50:27;8.37;;;6.90;;
20140;SDS011;10231;47.702;9.826;2022-10-31T00:52:53;9.57;;;6.80;;
20140;SDS011;10231;47.702;9.826;2022-10-31T00:55:18;11.27;;;7.00;;
20140;SDS011;10231;47.702;9.826;2022-10-31T00:57:47;9.47;;;6.30;;
20140;SDS011;10231;47.702;9.826;2022-10-31T01:00:13;8.60;;;6.47;;
20140;SDS011;10231;47.702;9.826;2022-10-31T01:02:39;11.23;;;6.23;;
20140;SDS011;10231;47.702;9.826;2022-10-31T01:05:05;9.60;;;6.10;;
20140;SDS011;10231;47.702;9.826;2022-10-31T01:07:31;10.07;;;6.60;;
20140;SDS011;10231;47.702;9.826;2022-10-31T01:09:56;9.10;;;6.37;;
20140;SDS011;10231;47.702;9.826;2022-10-31T01:12:22;6.87;;;6.10;;
20140;SDS011;10231;47.702;9.826;2022-10-31T01:14:47;7.43;;;5.53;;
20140;SDS011;10231;47.702;9.826;2022-10-31T01:17:13;9.53;;;6.17;;
20140;SDS011;10231;47.702;9.826;2022-10-31T01:19:39;9.67;;;6.50;;
20140;SDS011;10231;47.702;9.826;2022-10-31T01:22:05;12.10;;;6.03;;
20140;SDS011;10231;47.702;9.826;2022-10-31T01:24:31;10.33;;;6.73;;
20140;SDS011;10231;47.702;9.826;2022-10-31T01:26:57;7.77;;;5.47;;
20140;SDS011;10231;47.702;9.826;2022-10-31T01:29:23;6.97;;;5.50;;
20140;SDS011;10231;47.702;9.826;2022-10-31T01:31:48;7.90;;;5.93;;
20140;SDS011;10231;47.702;9.826;2022-10-31T01:34:15;9.20;;;6.07;;
20140;SDS011;10231;47.702;9.826;2022-10-31T01:36:42;8.57;;;5.87;;
20140;SDS011;10231;47.702;9.826;2022-10-31T01:39:13;6.33;;;5.07;;
20140;SDS011;10231;47.702;9.826;2022-10-31T01:41:44;11.03;;;6.07;;
20140;SDS011;10231;47.702;9.826;2022-10-31T01:49:18;8.90;;;5.37;;
20140;SDS011;10231;47.702;9.826;2022-10-31T01:51:50;10.27;;;6.70;;
20140;SDS011;10231;47.702;9.826;2022-10-31T01:54:27;9.27;;;5.47;;
20140;SDS011;10231;47.702;9.826;2022-10-31T01:56:58;9.40;;;5.90;;
20140;SDS011;10231;47.702;9.826;2022-10-31T01:59:27;8.27;;;5.80;;
20140;SDS011;10231;47.702;9.826;2022-10-31T02:01:55;6.13;;;5.37;;
20140;SDS011;10231;47.702;9.826;2022-10-31T02:04:21;10.07;;;5.93;;
20140;SDS011;10231;47.702;9.826;2022-10-31T02:06:51;8.47;;;5.53;;
20140;SDS011;10231;47.702;9.826;2022-10-31T02:09:22;11.17;;;5.23;;
20140;SDS011;10231;47.702;9.826;2022-10-31T02:11:53;11.87;;;5.83;;
20140;SDS011;10231;47.702;9.826;2022-10-31T02:14:22;9.70;;;4.70;;
20140;SDS011;10231;47.702;9.826;2022-10-31T02:16:49;9.83;;;5.40;;
20140;SDS011;10231;47.702;9.826;2022-10-31T02:19:17;7.47;;;5.00;;
20140;SDS011;10231;47.702;9.826;2022-10-31T02:21:58;6.27;;;4.33;;
20140;SDS011;10231;47.702;9.826;2022-10-31T02:27:37;13.53;;;5.07;;
20140;SDS011;10231;47.702;9.826;2022-10-31T02:30:23;7.47;;;4.23;;
20140;SDS011;10231;47.702;9.826;2022-10-31T02:41:15;7.57;;;4.40;;
20140;SDS011;10231;47.702;9.826;2022-10-31T02:43:54;7.67;;;4.37;;
20140;SDS011;10231;47.702;9.826;2022-10-31T02:46:43;5.17;;;4.60;;
20140;SDS011;10231;47.702;9.826;2022-10-31T02:49:23;9.37;;;4.67;;
20140;SDS011;10231;47.702;9.826;2022-10-31T02:51:52;6.50;;;4.70;;
20140;SDS011;10231;47.702;9.826;2022-10-31T02:54:19;7.13;;;4.37;;
20140;SDS011;10231;47.702;9.826;2022-10-31T02:56:47;6.57;;;4.40;;
20140;SDS011;10231;47.702;9.826;2022-10-31T02:59:15;6.63;;;4.03;;
20140;SDS011;10231;47.702;9.826;2022-10-31T03:04:34;7.40;;;4.77;;
20140;SDS011;10231;47.702;9.826;2022-10-31T03:10:07;8.87;;;4.83;;
20140;SDS011;10231;47.702;9.826;2022-10-31T03:12:49;4.97;;;4.47;;
20140;SDS011;10231;47.702;9.826;2022-10-31T03:15:35;8.93;;;4.90;;
20140;SDS011;10231;47.702;9.826;2022-10-31T03:18:11;7.10;;;4.90;;
20140;SDS011;10231;47.702;9.826;2022-10-31T03:20:45;7.90;;;4.50;;
20140;SDS011;10231;47.702;9.826;2022-10-31T03:23:23;5.83;;;4.30;;
20140;SDS011;10231;47.702;9.826;2022-10-31T03:25:50;6.80;;;4.23;;
20140;SDS011;10231;47.702;9.826;2022-10-31T03:28:18;6.87;;;4.03;;
20140;SDS011;10231;47.702;9.826;2022-10-31T03:30:50;4.80;;;4.33;;
20140;SDS011;10231;47.702;9.826;2022-10-31T03:33:21;8.47;;;4.33;;
20140;SDS011;10231;47.702;9.826;2022-10-31T03:35:54;8.20;;;4.30;;
20140;SDS011;10231;47.702;9.826;2022-10-31T03:38:22;6.70;;;4.13;;
20140;SDS011;10231;47.702;9.826;2022-10-31T03:40:47;6.13;;;4.00;;
20140;SDS011;10231;47.702;9.826;2022-10-31T03:43:16;4.93;;;4.27;;
20140;SDS011;10231;47.702;9.826;2022-10-31T03:45:51;8.80;;;3.77;;
20140;SDS011;10231;47.702;9.826;2022-10-31T03:48:18;11.00;;;3.80;;
20140;SDS011;10231;47.702;9.826;2022-10-31T03:50:57;8.40;;;3.87;;
20140;SDS011;10231;47.702;9.826;2022-10-31T03:53:36;7.50;;;3.77;;
20140;SDS011;10231;47.702;9.826;2022-10-31T03:56:18;8.03;;;4.33;;
20140;SDS011;10231;47.702;9.826;2022-10-31T03:59:10;8.00;;;4.20;;
20140;SDS011;10231;47.702;9.826;2022-10-31T04:01:38;6.50;;;3.67;;
20140;SDS011;10231;47.702;9.826;2022-10-31T04:04:06;5.60;;;2.97;;
20140;SDS011;10231;47.702;9.826;2022-10-31T04:06:33;5.13;;;3.67;;
20140;SDS011;10231;47.702;9.826;2022-10-31T04:09:02;9.67;;;3.70;;
20140;SDS011;10231;47.702;9.826;2022-10-31T04:11:30;9.20;;;3.70;;
20140;SDS011;10231;47.702;9.826;2022-10-31T04:13:59;6.10;;;3.90;;
20140;SDS011;10231;47.702;9.826;2022-10-31T04:16:27;6.67;;;4.03;;
20140;SDS011;10231;47.702;9.826;2022-10-31T04:18:53;4.33;;;3.37;;
20140;SDS011;10231;47.702;9.826;2022-10-31T04:21:19;4.60;;;3.47;;
20140;SDS011;10231;47.702;9.826;2022-10-31T04:23:51;7.90;;;3.73;;
20140;SDS011;10231;47.702;9.826;2022-10-31T04:26:16;5.93;;;4.30;;
20140;SDS011;10231;47.702;9.826;2022-10-31T04:28:42;6.17;;;3.67;;
20140;SDS011;10231;47.702;9.826;2022-10-31T04:31:08;6.30;;;3.60;;
20140;SDS011;10231;47.702;9.826;2022-10-31T04:33:36;7.10;;;4.03;;
20140;SDS011;10231;47.702;9.826;2022-10-31T04:36:01;5.07;;;3.50;;
20140;SDS011;10231;47.702;9.826;2022-10-31T04:38:27;7.17;;;3.40;;
20140;SDS011;10231;47.702;9.826;2022-10-31T04:40:52;5.23;;;3.80;;
20140;SDS011;10231;47.702;9.826;2022-10-31T04:43:18;6.73;;;3.87;;
20140;SDS011;10231;47.702;9.826;2022-10-31T04:45:44;9.93;;;4.37;;
20140;SDS011;10231;47.702;9.826;2022-10-31T04:48:09;6.60;;;3.60;;
20140;SDS011;10231;47.702;9.826;2022-10-31T04:50:35;5.83;;;3.87;;
20140;SDS011;10231;47.702;9.826;2022-10-31T04:53:00;4.70;;;3.60;;
20140;SDS011;10231;47.702;9.826;2022-10-31T04:55:26;3.90;;;3.27;;
20140;SDS011;10231;47.702;9.826;2022-10-31T04:57:52;5.20;;;4.33;;
20140;SDS011;10231;47.702;9.826;2022-10-31T05:00:18;5.03;;;3.37;;
20140;SDS011;10231;47.702;9.826;2022-10-31T05:02:49;4.90;;;3.00;;
20140;SDS011;10231;47.702;9.826;2022-10-31T05:05:17;7.90;;;3.50;;
20140;SDS011;10231;47.702;9.826;2022-10-31T05:07:44;4.97;;;3.30;;
20140;SDS011;10231;47.702;9.826;2022-10-31T05:10:12;4.53;;;3.50;;
20140;SDS011;10231;47.702;9.826;2022-10-31T05:12:46;6.83;;;3.53;;
20140;SDS011;10231;47.702;9.826;2022-10-31T05:15:16;6.27;;;4.17;;
20140;SDS011;10231;47.702;9.826;2022-10-31T05:17:43;5.67;;;4.00;;
20140;SDS011;10231;47.702;9.826;2022-10-31T05:20:09;6.57;;;3.63;;
20140;SDS011;10231;47.702;9.826;2022-10-31T05:22:36;5.10;;;3.40;;
20140;SDS011;10231;47.702;9.826;2022-10-31T05:25:02;3.67;;;3.37;;
20140;SDS011;10231;47.702;9.826;2022-10-31T05:27:28;4.30;;;3.27;;
20140;SDS011;10231;47.702;9.826;2022-10-31T05:29:53;5.73;;;2.97;;
20140;SDS011;10231;47.702;9.826;2022-10-31T05:32:19;3.77;;;3.20;;
20140;SDS011;10231;47.702;9.826;2022-10-31T05:34:44;4.33;;;3.23;;
20140;SDS011;10231;47.702;9.826;2022-10-31T05:37:10;3.50;;;3.20;;
20140;SDS011;10231;47.702;9.826;2022-10-31T05:39:35;5.07;;;3.03;;
20140;SDS011;10231;47.702;9.826;2022-10-31T05:42:01;6.17;;;3.37;;
20140;SDS011;10231;47.702;9.826;2022-10-31T05:44:26;5.67;;;3.40;;
20140;SDS011;10231;47.702;9.826;2022-10-31T05:46:52;7.50;;;3.93;;
20140;SDS011;10231;47.702;9.826;2022-10-31T05:49:18;5.27;;;3.40;;
20140;SDS011;10231;47.702;9.826;2022-10-31T05:51:43;4.93;;;3.00;;
20140;SDS011;10231;47.702;9.826;2022-10-31T05:54:09;4.03;;;2.90;;
20140;SDS011;10231;47.702;9.826;2022-10-31T05:56:34;4.90;;;3.43;;
20140;SDS011;10231;47.702;9.826;2022-10-31T05:59:00;7.47;;;3.53;;
20140;SDS011;10231;47.702;9.826;2022-10-31T06:01:25;5.77;;;3.00;;
20140;SDS011;10231;47.702;9.826;2022-10-31T06:03:51;3.93;;;3.03;;
20140;SDS011;10231;47.702;9.826;2022-10-31T06:06:17;5.33;;;3.47;;
20140;SDS011;10231;47.702;9.826;2022-10-31T06:08:42;5.03;;;3.30;;
20140;SDS011;10231;47.702;9.826;2022-10-31T06:11:08;3.77;;;3.00;;
20140;SDS011;10231;47.702;9.826;2022-10-31T06:13:33;6.13;;;3.70;;
20140;SDS011;10231;47.702;9.826;2022-10-31T06:15:59;4.13;;;3.30;;
20140;SDS011;10231;47.702;9.826;2022-10-31T06:18:24;6.53;;;3.80;;
20140;SDS011;10231;47.702;9.826;2022-10-31T06:20:50;7.33;;;3.47;;
20140;SDS011;10231;47.702;9.826;2022-10-31T06:23:15;4.57;;;3.47;;
20140;SDS011;10231;47.702;9.826;2022-10-31T06:25:41;4.93;;;2.97;;
20140;SDS011;10231;47.702;9.826;2022-10-31T06:28:07;6.37;;;3.77;;
20140;SDS011;10231;47.702;9.826;2022-10-31T06:30:32;7.33;;;3.77;;
20140;SDS011;10231;47.702;9.826;2022-10-31T06:33:02;5.43;;;3.40;;
20140;SDS011;10231;47.702;9.826;2022-10-31T06:35:28;7.83;;;3.80;;
20140;SDS011;10231;47.702;9.826;2022-10-31T06:37:54;4.17;;;3.23;;
20140;SDS011;10231;47.702;9.826;2022-10-31T06:40:20;5.70;;;3.40;;
20140;SDS011;10231;47.702;9.826;2022-10-31T06:42:46;4.97;;;3.43;;
20140;SDS011;10231;47.702;9.826;2022-10-31T06:45:12;5.40;;;3.87;;
20140;SDS011;10231;47.702;9.826;2022-10-31T06:47:38;4.30;;;3.00;;
20140;SDS011;10231;47.702;9.826;2022-10-31T06:50:03;4.47;;;3.23;;
20140;SDS011;10231;47.702;9.826;2022-10-31T06:52:29;7.73;;;3.30;;
20140;SDS011;10231;47.702;9.826;2022-10-31T06:54:55;6.93;;;4.07;;
20140;SDS011;10231;47.702;9.826;2022-10-31T06:57:20;15.37;;;10.90;;
20140;SDS011;10231;47.702;9.826;2022-10-31T06:59:46;11.60;;;8.00;;
20140;SDS011;10231;47.702;9.826;2022-10-31T07:02:11;5.90;;;5.20;;
20140;SDS011;10231;47.702;9.826;2022-10-31T07:04:37;4.90;;;3.43;;
20140;SDS011;10231;47.702;9.826;2022-10-31T07:07:03;4.53;;;3.53;;
20140;SDS011;10231;47.702;9.826;2022-10-31T07:09:28;8.23;;;4.30;;
20140;SDS011;10231;47.702;9.826;2022-10-31T07:11:54;6.20;;;3.60;;
20140;SDS011;10231;47.702;9.826;2022-10-31T07:14:20;8.27;;;3.70;;
20140;SDS011;10231;47.702;9.826;2022-10-31T07:16:49;7.43;;;4.77;;
20140;SDS011;10231;47.702;9.826;2022-10-31T07:19:15;7.13;;;5.20;;
20140;SDS011;10231;47.702;9.826;2022-10-31T07:21:41;6.43;;;4.60;;
20140;SDS011;10231;47.702;9.826;2022-10-31T07:24:07;9.57;;;4.00;;
20140;SDS011;10231;47.702;9.826;2022-10-31T07:26:32;4.73;;;3.10;;
20140;SDS011;10231;47.702;9.826;2022-10-31T07:28:58;4.33;;;2.90;;
20140;SDS011;10231;47.702;9.826;2022-10-31T07:31:24;5.73;;;3.07;;
20140;SDS011;10231;47.702;9.826;2022-10-31T07:33:50;5.37;;;3.10;;
20140;SDS011;10231;47.702;9.826;2022-10-31T07:36:15;5.47;;;3.03;;
20140;SDS011;10231;47.702;9.826;2022-10-31T07:38:41;5.33;;;3.47;;
20140;SDS011;10231;47.702;9.826;2022-10-31T07:41:07;7.77;;;3.30;;
20140;SDS011;10231;47.702;9.826;2022-10-31T07:43:32;7.67;;;3.43;;
20140;SDS011;10231;47.702;9.826;2022-10-31T07:45:58;6.53;;;3.67;;
20140;SDS011;10231;47.702;9.826;2022-10-31T07:48:23;7.13;;;3.73;;
20140;SDS011;10231;47.702;9.826;2022-10-31T07:50:49;8.50;;;3.80;;
20140;SDS011;10231;47.702;9.826;2022-10-31T07:53:15;5.50;;;3.50;;
20140;SDS011;10231;47.702;9.826;2022-10-31T07:55:41;5.37;;;2.77;;
20140;SDS011;10231;47.702;9.826;2022-10-31T07:58:08;6.00;;;2.87;;
20140;SDS011;10231;47.702;9.826;2022-10-31T08:00:39;4.60;;;3.47;;
20140;SDS011;10231;47.702;9.826;2022-10-31T08:03:06;4.90;;;3.60;;
20140;SDS011;10231;47.702;9.826;2022-10-31T08:05:34;5.43;;;3.17;;
20140;SDS011;10231;47.702;9.826;2022-10-31T08:08:00;7.97;;;4.00;;
20140;SDS011;10231;47.702;9.826;2022-10-31T08:10:26;8.77;;;4.03;;
20140;SDS011;10231;47.702;9.826;2022-10-31T08:13:00;7.37;;;3.77;;
20140;SDS011;10231;47.702;9.826;2022-10-31T08:15:27;7.67;;;3.70;;
20140;SDS011;10231;47.702;9.826;2022-10-31T08:17:53;6.93;;;3.63;;
20140;SDS011;10231;47.702;9.826;2022-10-31T08:20:19;6.23;;;3.70;;
20140;SDS011;10231;47.702;9.826;2022-10-31T08:22:52;4.37;;;3.20;;
20140;SDS011;10231;47.702;9.826;2022-10-31T08:25:21;6.60;;;3.60;;
20140;SDS011;10231;47.702;9.826;2022-10-31T08:27:54;8.10;;;3.67;;
20140;SDS011;10231;47.702;9.826;2022-10-31T08:30:21;4.63;;;3.23;;
20140;SDS011;10231;47.702;9.826;2022-10-31T08:32:47;5.97;;;3.33;;
20140;SDS011;10231;47.702;9.826;2022-10-31T08:35:35;8.17;;;3.80;;
20140;SDS011;10231;47.702;9.826;2022-10-31T08:38:00;8.70;;;3.47;;
20140;SDS011;10231;47.702;9.826;2022-10-31T08:40:27;6.53;;;3.60;;
20140;SDS011;10231;47.702;9.826;2022-10-31T08:43:01;5.23;;;3.83;;
20140;SDS011;10231;47.702;9.826;2022-10-31T08:45:32;5.13;;;2.87;;
20140;SDS011;10231;47.702;9.826;2022-10-31T08:48:02;8.37;;;3.03;;
20140;SDS011;10231;47.702;9.826;2022-10-31T08:50:30;6.27;;;3.70;;
20140;SDS011;10231;47.702;9.826;2022-10-31T08:53:01;10.50;;;3.60;;
20140;SDS011;10231;47.702;9.826;2022-10-31T08:55:28;7.13;;;3.23;;
20140;SDS011;10231;47.702;9.826;2022-10-31T08:57:54;4.57;;;2.90;;
20140;SDS011;10231;47.702;9.826;2022-10-31T09:00:21;10.73;;;3.97;;
20140;SDS011;10231;47.702;9.826;2022-10-31T09:02:47;10.50;;;3.70;;
20140;SDS011;10231;47.702;9.826;2022-10-31T09:05:12;5.43;;;3.33;;
20140;SDS011;10231;47.702;9.826;2022-10-31T09:07:38;6.43;;;3.43;;
20140;SDS011;10231;47.702;9.826;2022-10-31T09:10:04;6.97;;;2.97;;
20140;SDS011;10231;47.702;9.826;2022-10-31T09:12:29;4.87;;;2.57;;
20140;SDS011;10231;47.702;9.826;2022-10-31T09:14:55;8.27;;;3.00;;
20140;SDS011;10231;47.702;9.826;2022-10-31T09:17:20;6.10;;;3.47;;
20140;SDS011;10231;47.702;9.826;2022-10-31T09:19:46;6.37;;;3.60;;
20140;SDS011;10231;47.702;9.826;2022-10-31T09:22:11;6.17;;;3.87;;
20140;SDS011;10231;47.702;9.826;2022-10-31T09:24:37;6.10;;;3.27;;
20140;SDS011;10231;47.702;9.826;2022-10-31T09:27:03;5.63;;;3.20;;
20140;SDS011;10231;47.702;9.826;2022-10-31T09:29:28;8.67;;;3.90;;
20140;SDS011;10231;47.702;9.826;2022-10-31T09:31:55;5.47;;;3.87;;
20140;SDS011;10231;47.702;9.826;2022-10-31T09:34:21;6.90;;;3.17;;
20140;SDS011;10231;47.702;9.826;2022-10-31T09:36:47;7.13;;;3.33;;
20140;SDS011;10231;47.702;9.826;2022-10-31T09:39:13;5.47;;;3.40;;
20140;SDS011;10231;47.702;9.826;2022-10-31T09:50:15;8.00;;;3.30;;
20140;SDS011;10231;47.702;9.826;2022-10-31T09:53:02;4.47;;;3.13;;
20140;SDS011;10231;47.702;9.826;2022-10-31T09:55:37;5.30;;;3.50;;
20140;SDS011;10231;47.702;9.826;2022-10-31T09:58:08;8.07;;;3.80;;
20140;SDS011;10231;47.702;9.826;2022-10-31T10:00:41;8.47;;;4.53;;
20140;SDS011;10231;47.702;9.826;2022-10-31T10:03:14;8.17;;;4.17;;
20140;SDS011;10231;47.702;9.826;2022-10-31T10:06:06;6.37;;;3.67;;
20140;SDS011;10231;47.702;9.826;2022-10-31T10:08:42;6.97;;;4.00;;
20140;SDS011;10231;47.702;9.826;2022-10-31T10:13:52;7.47;;;3.50;;
20140;SDS011;10231;47.702;9.826;2022-10-31T10:16:41;8.10;;;4.90;;
20140;SDS011;10231;47.702;9.826;2022-10-31T10:27:58;7.87;;;4.27;;
20140;SDS011;10231;47.702;9.826;2022-10-31T10:30:41;10.83;;;4.40;;
20140;SDS011;10231;47.702;9.826;2022-10-31T10:33:19;8.53;;;4.10;;
20140;SDS011;10231;47.702;9.826;2022-10-31T10:35:49;10.07;;;4.40;;
20140;SDS011;10231;47.702;9.826;2022-10-31T10:38:36;9.93;;;4.10;;
20140;SDS011;10231;47.702;9.826;2022-10-31T10:41:17;8.47;;;4.87;;
20140;SDS011;10231;47.702;9.826;2022-10-31T10:43:51;8.77;;;5.03;;
20140;SDS011;10231;47.702;9.826;2022-10-31T10:49:18;8.50;;;4.70;;
20140;SDS011;10231;47.702;9.826;2022-10-31T10:51:45;10.07;;;4.40;;
20140;SDS011;10231;47.702;9.826;2022-10-31T10:59:43;6.47;;;4.73;;
20140;SDS011;10231;47.702;9.826;2022-10-31T11:02:19;8.67;;;4.53;;
20140;SDS011;10231;47.702;9.826;2022-10-31T11:04:49;8.23;;;4.97;;
20140;SDS011;10231;47.702;9.826;2022-10-31T11:07:17;10.53;;;5.47;;
20140;SDS011;10231;47.702;9.826;2022-10-31T11:09:43;8.27;;;4.93;;
20140;SDS011;10231;47.702;9.826;2022-10-31T11:12:10;8.77;;;4.60;;
20140;SDS011;10231;47.702;9.826;2022-10-31T11:14:54;10.30;;;4.63;;
20140;SDS011;10231;47.702;9.826;2022-10-31T11:17:31;6.93;;;4.70;;
20140;SDS011;10231;47.702;9.826;2022-10-31T11:20:49;12.80;;;5.47;;
20140;SDS011;10231;47.702;9.826;2022-10-31T11:22:45;11.53;;;4.77;;
20140;SDS011;10231;47.702;9.826;2022-10-31T11:25:24;10.20;;;4.83;;
20140;SDS011;10231;47.702;9.826;2022-10-31T11:28:04;7.13;;;5.47;;
20140;SDS011;10231;47.702;9.826;2022-10-31T11:30:42;8.90;;;5.20;;
20140;SDS011;10231;47.702;9.826;2022-10-31T11:33:33;7.77;;;6.43;;
20140;SDS011;10231;47.702;9.826;2022-10-31T11:36:01;7.77;;;6.20;;
20140;SDS011;10231;47.702;9.826;2022-10-31T11:38:41;9.50;;;7.87;;
20140;SDS011;10231;47.702;9.826;2022-10-31T11:41:10;10.73;;;7.33;;
20140;SDS011;10231;47.702;9.826;2022-10-31T11:43:45;9.53;;;7.83;;
20140;SDS011;10231;47.702;9.826;2022-10-31T11:46:19;10.83;;;8.90;;
20140;SDS011;10231;47.702;9.826;2022-10-31T11:49:13;10.87;;;9.57;;
20140;SDS011;10231;47.702;9.826;2022-10-31T11:51:42;13.73;;;10.03;;
20140;SDS011;10231;47.702;9.826;2022-10-31T11:54:17;13.17;;;10.50;;
20140;SDS011;10231;47.702;9.826;2022-10-31T11:56:46;11.50;;;10.30;;
20140;SDS011;10231;47.702;9.826;2022-10-31T11:59:29;11.10;;;9.10;;
20140;SDS011;10231;47.702;9.826;2022-10-31T12:01:57;10.43;;;9.30;;
20140;SDS011;10231;47.702;9.826;2022-10-31T12:04:59;10.13;;;9.23;;
20140;SDS011;10231;47.702;9.826;2022-10-31T12:07:36;8.87;;;8.07;;
20140;SDS011;10231;47.702;9.826;2022-10-31T12:10:04;10.83;;;9.60;;
20140;SDS011;10231;47.702;9.826;2022-10-31T12:12:39;10.13;;;9.13;;
20140;SDS011;10231;47.702;9.826;2022-10-31T12:23:36;11.27;;;8.80;;
20140;SDS011;10231;47.702;9.826;2022-10-31T12:34:47;10.90;;;8.17;;
20140;SDS011;10231;47.702;9.826;2022-10-31T12:43:29;9.57;;;8.67;;
20140;SDS011;10231;47.702;9.826;2022-10-31T12:46:15;10.50;;;9.40;;
20140;SDS011;10231;47.702;9.826;2022-10-31T12:51:15;11.80;;;9.97;;
20140;SDS011;10231;47.702;9.826;2022-10-31T12:53:59;12.97;;;11.30;;
20140;SDS011;10231;47.702;9.826;2022-10-31T12:59:28;11.83;;;10.53;;
20140;SDS011;10231;47.702;9.826;2022-10-31T13:01:56;15.97;;;11.13;;
20140;SDS011;10231;47.702;9.826;2022-10-31T13:04:36;11.93;;;10.70;;
20140;SDS011;10231;47.702;9.826;2022-10-31T13:07:22;13.37;;;10.33;;
20140;SDS011;10231;47.702;9.826;2022-10-31T13:10:01;11.93;;;10.53;;
20140;SDS011;10231;47.702;9.826;2022-10-31T13:12:32;12.17;;;10.97;;
20140;SDS011;10231;47.702;9.826;2022-10-31T13:15:01;12.60;;;11.10;;
20140;SDS011;10231;47.702;9.826;2022-10-31T13:17:35;13.13;;;10.90;;
20140;SDS011;10231;47.702;9.826;2022-10-31T13:22:44;14.53;;;10.73;;
20140;SDS011;10231;47.702;9.826;2022-10-31T13:27:44;14.77;;;11.00;;
20140;SDS011;10231;47.702;9.826;2022-10-31T13:30:18;12.97;;;11.10;;
20140;SDS011;10231;47.702;9.826;2022-10-31T13:32:50;14.07;;;11.10;;
20140;SDS011;10231;47.702;9.826;2022-10-31T13:38:38;12.73;;;10.00;;
20140;SDS011;10231;47.702;9.826;2022-10-31T13:41:31;10.43;;;9.20;;
20140;SDS011;10231;47.702;9.826;2022-10-31T13:44:08;13.70;;;10.23;;
20140;SDS011;10231;47.702;9.826;2022-10-31T13:46:42;11.33;;;9.20;;
20140;SDS011;10231;47.702;9.826;2022-10-31T13:51:50;13.73;;;9.83;;
20140;SDS011;10231;47.702;9.826;2022-10-31T13:54:20;13.20;;;10.40;;
20140;SDS011;10231;47.702;9.826;2022-10-31T13:56:50;14.30;;;10.40;;
20140;SDS011;10231;47.702;9.826;2022-10-31T13:59:23;12.87;;;10.13;;
20140;SDS011;10231;47.702;9.826;2022-10-31T14:01:52;11.27;;;9.70;;
20140;SDS011;10231;47.702;9.826;2022-10-31T14:04:23;13.40;;;10.23;;
20140;SDS011;10231;47.702;9.826;2022-10-31T14:07:11;15.57;;;10.80;;
20140;SDS011;10231;47.702;9.826;2022-10-31T14:09:53;15.90;;;10.60;;
20140;SDS011;10231;47.702;9.826;2022-10-31T14:12:34;16.13;;;10.37;;
20140;SDS011;10231;47.702;9.826;2022-10-31T14:15:24;12.50;;;9.67;;
20140;SDS011;10231;47.702;9.826;2022-10-31T14:20:32;14.37;;;10.37;;
20140;SDS011;10231;47.702;9.826;2022-10-31T14:23:30;12.80;;;9.60;;
20140;SDS011;10231;47.702;9.826;2022-10-31T14:28:55;11.57;;;9.27;;
20140;SDS011;10231;47.702;9.826;2022-10-31T14:34:04;15.33;;;9.90;;
20140;SDS011;10231;47.702;9.826;2022-10-31T14:52:36;13.60;;;8.90;;
20140;SDS011;10231;47.702;9.826;2022-10-31T14:55:04;12.00;;;9.53;;
20140;SDS011;10231;47.702;9.826;2022-10-31T14:57:32;13.83;;;10.73;;
20140;SDS011;10231;47.702;9.826;2022-10-31T15:00:03;11.10;;;9.37;;
20140;SDS011;10231;47.702;9.826;2022-10-31T15:02:36;13.20;;;9.27;;
20140;SDS011;10231;47.702;9.826;2022-10-31T15:05:11;12.87;;;9.83;;
20140;SDS011;10231;47.702;9.826;2022-10-31T15:07:48;17.53;;;10.17;;
20140;SDS011;10231;47.702;9.826;2022-10-31T15:10:21;14.90;;;9.93;;
20140;SDS011;10231;47.702;9.826;2022-10-31T15:12:50;13.33;;;9.90;;
20140;SDS011;10231;47.702;9.826;2022-10-31T15:17:53;13.67;;;9.57;;
20140;SDS011;10231;47.702;9.826;2022-10-31T15:20:30;15.60;;;11.17;;
20140;SDS011;10231;47.702;9.826;2022-10-31T15:23:01;13.87;;;10.27;;
20140;SDS011;10231;47.702;9.826;2022-10-31T15:25:32;13.57;;;10.40;;
20140;SDS011;10231;47.702;9.826;2022-10-31T15:28:00;11.87;;;10.03;;
20140;SDS011;10231;47.702;9.826;2022-10-31T15:30:27;12.47;;;10.27;;
20140;SDS011;10231;47.702;9.826;2022-10-31T15:32:54;14.37;;;10.03;;
20140;SDS011;10231;47.702;9.826;2022-10-31T15:35:22;15.63;;;9.80;;
20140;SDS011;10231;47.702;9.826;2022-10-31T15:37:51;16.60;;;10.60;;
20140;SDS011;10231;47.702;9.826;2022-10-31T15:40:17;13.87;;;11.43;;
20140;SDS011;10231;47.702;9.826;2022-10-31T15:42:46;15.57;;;10.97;;
20140;SDS011;10231;47.702;9.826;2022-10-31T15:45:21;13.80;;;11.87;;
20140;SDS011;10231;47.702;9.826;2022-10-31T15:48:12;14.93;;;11.57;;
20140;SDS011;10231;47.702;9.826;2022-10-31T15:50:46;14.47;;;11.87;;
20140;SDS011;10231;47.702;9.826;2022-10-31T15:53:35;17.10;;;11.97;;
20140;SDS011;10231;47.702;9.826;2022-10-31T15:56:19;20.30;;;11.73;;
20140;SDS011;10231;47.702;9.826;2022-10-31T15:58:48;13.63;;;11.57;;
20140;SDS011;10231;47.702;9.826;2022-10-31T16:06:28;18.20;;;10.77;;
20140;SDS011;10231;47.702;9.826;2022-10-31T16:08:54;13.63;;;11.03;;
20140;SDS011;10231;47.702;9.826;2022-10-31T16:16:32;14.33;;;10.93;;
20140;SDS011;10231;47.702;9.826;2022-10-31T16:18:59;15.30;;;11.30;;
20140;SDS011;10231;47.702;9.826;2022-10-31T16:21:44;18.23;;;12.30;;
20140;SDS011;10231;47.702;9.826;2022-10-31T16:24:20;13.13;;;10.87;;
20140;SDS011;10231;47.702;9.826;2022-10-31T16:26:51;16.43;;;11.17;;
20140;SDS011;10231;47.702;9.826;2022-10-31T16:29:26;14.73;;;10.80;;
20140;SDS011;10231;47.702;9.826;2022-10-31T16:31:53;14.27;;;10.63;;
20140;SDS011;10231;47.702;9.826;2022-10-31T16:34:20;16.47;;;11.87;;
20140;SDS011;10231;47.702;9.826;2022-10-31T16:36:47;17.77;;;12.80;;
20140;SDS011;10231;47.702;9.826;2022-10-31T16:39:13;18.73;;;14.00;;
20140;SDS011;10231;47.702;9.826;2022-10-31T16:41:43;21.40;;;15.07;;
20140;SDS011;10231;47.702;9.826;2022-10-31T16:44:15;17.17;;;13.13;;
20140;SDS011;10231;47.702;9.826;2022-10-31T16:46:42;20.07;;;11.70;;
20140;SDS011;10231;47.702;9.826;2022-10-31T16:49:08;18.60;;;14.37;;
20140;SDS011;10231;47.702;9.826;2022-10-31T16:51:34;24.03;;;16.50;;
20140;SDS011;10231;47.702;9.826;2022-10-31T16:54:00;18.50;;;13.37;;
20140;SDS011;10231;47.702;9.826;2022-10-31T16:56:27;14.67;;;11.77;;
20140;SDS011;10231;47.702;9.826;2022-10-31T16:58:56;17.63;;;12.50;;
20140;SDS011;10231;47.702;9.826;2022-10-31T17:01:22;16.00;;;11.40;;
20140;SDS011;10231;47.702;9.826;2022-10-31T17:03:48;16.13;;;12.47;;
20140;SDS011;10231;47.702;9.826;2022-10-31T17:06:14;17.03;;;13.07;;